sensor_id;sensor_type;location;lat;lon;timestamp;P1;durP1;ratioP1;P2;durP2;ratioP2
74674;SDS011;63200;48.810;12.352;2022-12-07T00:01:22;6.72;;;5.05;;
74674;SDS011;63200;48.810;12.352;2022-12-07T00:03:52;5.88;;;4.72;;
74674;SDS011;63200;48.810;12.352;2022-12-07T00:06:19;6.40;;;5.50;;
74674;SDS011;63200;48.810;12.352;2022-12-07T00:08:45;9.00;;;5.55;;
74674;SDS011;63200;48.810;12.352;2022-12-07T00:11:13;8.93;;;5.40;;
74674;SDS011;63200;48.810;12.352;2022-12-07T00:13:43;8.80;;;5.22;;
74674;SDS011;63200;48.810;12.352;2022-12-07T00:16:10;6.28;;;5.53;;
74674;SDS011;63200;48.810;12.352;2022-12-07T00:18:42;5.68;;;5.05;;
74674;SDS011;63200;48.810;12.352;2022-12-07T00:21:21;6.82;;;5.40;;
74674;SDS011;63200;48.810;12.352;2022-12-07T00:23:49;7.15;;;5.03;;
74674;SDS011;63200;48.810;12.352;2022-12-07T00:26:22;6.65;;;5.00;;
74674;SDS011;63200;48.810;12.352;2022-12-07T00:28:50;5.88;;;4.47;;
74674;SDS011;63200;48.810;12.352;2022-12-07T00:31:18;7.88;;;5.30;;
74674;SDS011;63200;48.810;12.352;2022-12-07T00:33:44;7.28;;;5.50;;
74674;SDS011;63200;48.810;12.352;2022-12-07T00:36:10;5.53;;;4.63;;
74674;SDS011;63200;48.810;12.352;2022-12-07T00:38:37;6.90;;;4.97;;
74674;SDS011;63200;48.810;12.352;2022-12-07T00:41:05;4.72;;;3.78;;
74674;SDS011;63200;48.810;12.352;2022-12-07T00:43:32;6.82;;;5.10;;
74674;SDS011;63200;48.810;12.352;2022-12-07T00:45:58;7.68;;;5.72;;
74674;SDS011;63200;48.810;12.352;2022-12-07T00:48:24;6.53;;;4.50;;
74674;SDS011;63200;48.810;12.352;2022-12-07T00:50:50;4.72;;;4.32;;
74674;SDS011;63200;48.810;12.352;2022-12-07T00:53:16;6.38;;;4.78;;
74674;SDS011;63200;48.810;12.352;2022-12-07T00:55:42;6.80;;;4.68;;
74674;SDS011;63200;48.810;12.352;2022-12-07T00:58:07;5.88;;;4.70;;
74674;SDS011;63200;48.810;12.352;2022-12-07T01:00:34;9.00;;;4.10;;
74674;SDS011;63200;48.810;12.352;2022-12-07T01:03:01;6.90;;;4.80;;
74674;SDS011;63200;48.810;12.352;2022-12-07T01:05:27;6.28;;;4.63;;
74674;SDS011;63200;48.810;12.352;2022-12-07T01:07:52;6.20;;;4.80;;
74674;SDS011;63200;48.810;12.352;2022-12-07T01:10:18;7.32;;;4.72;;
74674;SDS011;63200;48.810;12.352;2022-12-07T01:12:43;8.45;;;5.63;;
74674;SDS011;63200;48.810;12.352;2022-12-07T01:15:09;7.55;;;5.70;;
74674;SDS011;63200;48.810;12.352;2022-12-07T01:17:34;8.57;;;5.72;;
74674;SDS011;63200;48.810;12.352;2022-12-07T01:20:00;6.70;;;5.25;;
74674;SDS011;63200;48.810;12.352;2022-12-07T01:22:26;7.07;;;5.63;;
74674;SDS011;63200;48.810;12.352;2022-12-07T01:24:51;6.70;;;4.93;;
74674;SDS011;63200;48.810;12.352;2022-12-07T01:27:17;5.43;;;4.38;;
74674;SDS011;63200;48.810;12.352;2022-12-07T01:29:42;7.15;;;5.03;;
74674;SDS011;63200;48.810;12.352;2022-12-07T01:32:07;6.25;;;4.97;;
74674;SDS011;63200;48.810;12.352;2022-12-07T01:34:33;7.95;;;5.70;;
74674;SDS011;63200;48.810;12.352;2022-12-07T01:36:58;9.52;;;4.95;;
74674;SDS011;63200;48.810;12.352;2022-12-07T01:39:24;7.25;;;5.40;;
74674;SDS011;63200;48.810;12.352;2022-12-07T01:41:49;7.30;;;4.85;;
74674;SDS011;63200;48.810;12.352;2022-12-07T01:45:14;6.47;;;5.18;;
74674;SDS011;63200;48.810;12.352;2022-12-07T01:47:22;4.25;;;3.70;;
74674;SDS011;63200;48.810;12.352;2022-12-07T01:49:47;4.53;;;4.07;;
74674;SDS011;63200;48.810;12.352;2022-12-07T01:54:51;3.08;;;2.80;;
74674;SDS011;63200;48.810;12.352;2022-12-07T01:57:19;5.03;;;4.38;;
74674;SDS011;63200;48.810;12.352;2022-12-07T01:59:47;4.78;;;3.40;;
74674;SDS011;63200;48.810;12.352;2022-12-07T02:02:19;6.45;;;4.97;;
74674;SDS011;63200;48.810;12.352;2022-12-07T02:04:48;5.60;;;4.22;;
74674;SDS011;63200;48.810;12.352;2022-12-07T02:07:14;6.35;;;4.85;;
74674;SDS011;63200;48.810;12.352;2022-12-07T02:09:40;7.38;;;5.25;;
74674;SDS011;63200;48.810;12.352;2022-12-07T02:12:06;5.68;;;4.82;;
74674;SDS011;63200;48.810;12.352;2022-12-07T02:14:31;6.30;;;5.25;;
74674;SDS011;63200;48.810;12.352;2022-12-07T02:28:46;6.75;;;4.95;;
74674;SDS011;63200;48.810;12.352;2022-12-07T02:31:30;4.88;;;4.22;;
74674;SDS011;63200;48.810;12.352;2022-12-07T02:37:04;6.75;;;5.47;;
74674;SDS011;63200;48.810;12.352;2022-12-07T02:39:57;8.88;;;5.32;;
74674;SDS011;63200;48.810;12.352;2022-12-07T02:42:35;7.22;;;5.60;;
74674;SDS011;63200;48.810;12.352;2022-12-07T02:45:05;6.82;;;5.43;;
74674;SDS011;63200;48.810;12.352;2022-12-07T02:47:32;7.18;;;5.38;;
74674;SDS011;63200;48.810;12.352;2022-12-07T02:50:02;7.30;;;5.82;;
74674;SDS011;63200;48.810;12.352;2022-12-07T02:52:29;8.65;;;6.07;;
74674;SDS011;63200;48.810;12.352;2022-12-07T02:54:54;8.05;;;6.15;;
74674;SDS011;63200;48.810;12.352;2022-12-07T03:08:13;6.75;;;5.60;;
74674;SDS011;63200;48.810;12.352;2022-12-07T03:16:23;8.70;;;5.75;;
74674;SDS011;63200;48.810;12.352;2022-12-07T03:18:55;8.32;;;5.78;;
74674;SDS011;63200;48.810;12.352;2022-12-07T03:21:27;7.18;;;5.97;;
74674;SDS011;63200;48.810;12.352;2022-12-07T03:24:08;7.05;;;6.25;;
74674;SDS011;63200;48.810;12.352;2022-12-07T03:26:41;9.75;;;6.75;;
74674;SDS011;63200;48.810;12.352;2022-12-07T03:29:15;10.10;;;6.55;;
74674;SDS011;63200;48.810;12.352;2022-12-07T03:31:48;8.45;;;6.25;;
74674;SDS011;63200;48.810;12.352;2022-12-07T03:34:32;8.23;;;6.55;;
74674;SDS011;63200;48.810;12.352;2022-12-07T03:37:06;7.40;;;6.05;;
74674;SDS011;63200;48.810;12.352;2022-12-07T03:39:39;9.65;;;6.78;;
74674;SDS011;63200;48.810;12.352;2022-12-07T03:42:14;8.43;;;5.85;;
74674;SDS011;63200;48.810;12.352;2022-12-07T03:44:40;7.63;;;5.80;;
74674;SDS011;63200;48.810;12.352;2022-12-07T03:47:15;9.93;;;6.65;;
74674;SDS011;63200;48.810;12.352;2022-12-07T03:49:53;7.90;;;6.22;;
74674;SDS011;63200;48.810;12.352;2022-12-07T03:52:25;7.50;;;6.05;;
74674;SDS011;63200;48.810;12.352;2022-12-07T03:57:30;6.85;;;5.28;;
74674;SDS011;63200;48.810;12.352;2022-12-07T03:59:58;9.35;;;6.20;;
74674;SDS011;63200;48.810;12.352;2022-12-07T04:02:23;9.88;;;6.60;;
74674;SDS011;63200;48.810;12.352;2022-12-07T04:04:51;9.27;;;6.25;;
74674;SDS011;63200;48.810;12.352;2022-12-07T04:07:17;8.85;;;5.40;;
74674;SDS011;63200;48.810;12.352;2022-12-07T04:09:42;13.73;;;7.93;;
74674;SDS011;63200;48.810;12.352;2022-12-07T04:12:08;8.82;;;6.20;;
74674;SDS011;63200;48.810;12.352;2022-12-07T04:14:33;9.10;;;6.15;;
74674;SDS011;63200;48.810;12.352;2022-12-07T04:16:58;10.07;;;6.80;;
74674;SDS011;63200;48.810;12.352;2022-12-07T04:19:25;8.32;;;6.28;;
74674;SDS011;63200;48.810;12.352;2022-12-07T04:21:52;11.38;;;7.25;;
74674;SDS011;63200;48.810;12.352;2022-12-07T04:24:17;10.98;;;7.78;;
74674;SDS011;63200;48.810;12.352;2022-12-07T04:26:43;10.77;;;6.53;;
74674;SDS011;63200;48.810;12.352;2022-12-07T04:29:10;10.98;;;7.32;;
74674;SDS011;63200;48.810;12.352;2022-12-07T04:31:36;7.22;;;5.65;;
74674;SDS011;63200;48.810;12.352;2022-12-07T04:34:02;8.18;;;5.55;;
74674;SDS011;63200;48.810;12.352;2022-12-07T04:36:28;8.70;;;5.68;;
74674;SDS011;63200;48.810;12.352;2022-12-07T04:38:54;9.35;;;6.50;;
74674;SDS011;63200;48.810;12.352;2022-12-07T04:41:19;11.40;;;7.57;;
74674;SDS011;63200;48.810;12.352;2022-12-07T04:43:52;12.55;;;6.88;;
74674;SDS011;63200;48.810;12.352;2022-12-07T04:46:21;11.43;;;7.90;;
74674;SDS011;63200;48.810;12.352;2022-12-07T04:48:46;10.98;;;7.28;;
74674;SDS011;63200;48.810;12.352;2022-12-07T04:51:12;13.30;;;8.63;;
74674;SDS011;63200;48.810;12.352;2022-12-07T04:53:38;11.80;;;7.65;;
74674;SDS011;63200;48.810;12.352;2022-12-07T04:56:04;12.30;;;7.72;;
74674;SDS011;63200;48.810;12.352;2022-12-07T04:58:29;9.32;;;6.10;;
74674;SDS011;63200;48.810;12.352;2022-12-07T05:00:54;10.88;;;7.30;;
74674;SDS011;63200;48.810;12.352;2022-12-07T05:03:20;14.80;;;7.60;;
74674;SDS011;63200;48.810;12.352;2022-12-07T05:05:45;9.68;;;6.00;;
74674;SDS011;63200;48.810;12.352;2022-12-07T05:08:10;6.30;;;4.50;;
74674;SDS011;63200;48.810;12.352;2022-12-07T05:10:36;10.77;;;7.07;;
74674;SDS011;63200;48.810;12.352;2022-12-07T05:13:01;10.73;;;6.43;;
74674;SDS011;63200;48.810;12.352;2022-12-07T05:15:26;6.30;;;3.95;;
74674;SDS011;63200;48.810;12.352;2022-12-07T05:17:52;13.82;;;7.78;;
74674;SDS011;63200;48.810;12.352;2022-12-07T05:20:17;11.95;;;7.28;;
74674;SDS011;63200;48.810;12.352;2022-12-07T05:22:42;12.88;;;8.50;;
74674;SDS011;63200;48.810;12.352;2022-12-07T05:25:08;14.25;;;8.77;;
74674;SDS011;63200;48.810;12.352;2022-12-07T05:27:34;14.60;;;8.60;;
74674;SDS011;63200;48.810;12.352;2022-12-07T05:29:59;12.38;;;8.13;;
74674;SDS011;63200;48.810;12.352;2022-12-07T05:32:24;15.10;;;8.07;;
74674;SDS011;63200;48.810;12.352;2022-12-07T05:34:50;11.40;;;7.53;;
74674;SDS011;63200;48.810;12.352;2022-12-07T05:37:15;12.27;;;7.38;;
74674;SDS011;63200;48.810;12.352;2022-12-07T05:39:40;14.50;;;8.82;;
74674;SDS011;63200;48.810;12.352;2022-12-07T05:42:08;8.00;;;5.50;;
74674;SDS011;63200;48.810;12.352;2022-12-07T05:44:38;13.10;;;7.80;;
74674;SDS011;63200;48.810;12.352;2022-12-07T05:47:09;13.20;;;7.88;;
74674;SDS011;63200;48.810;12.352;2022-12-07T05:49:34;17.27;;;8.95;;
74674;SDS011;63200;48.810;12.352;2022-12-07T05:52:00;14.02;;;8.10;;
74674;SDS011;63200;48.810;12.352;2022-12-07T05:54:26;14.68;;;8.75;;
74674;SDS011;63200;48.810;12.352;2022-12-07T05:56:52;16.35;;;9.20;;
74674;SDS011;63200;48.810;12.352;2022-12-07T05:59:17;17.70;;;9.77;;
74674;SDS011;63200;48.810;12.352;2022-12-07T06:01:58;14.40;;;8.48;;
74674;SDS011;63200;48.810;12.352;2022-12-07T06:04:27;12.77;;;8.80;;
74674;SDS011;63200;48.810;12.352;2022-12-07T06:06:54;17.10;;;7.63;;
74674;SDS011;63200;48.810;12.352;2022-12-07T06:09:21;16.77;;;8.95;;
74674;SDS011;63200;48.810;12.352;2022-12-07T06:11:47;14.50;;;8.97;;
74674;SDS011;63200;48.810;12.352;2022-12-07T06:14:31;15.70;;;9.60;;
74674;SDS011;63200;48.810;12.352;2022-12-07T06:16:57;18.70;;;9.70;;
74674;SDS011;63200;48.810;12.352;2022-12-07T06:19:23;17.47;;;10.50;;
74674;SDS011;63200;48.810;12.352;2022-12-07T06:21:48;18.77;;;10.37;;
74674;SDS011;63200;48.810;12.352;2022-12-07T06:24:14;17.50;;;10.40;;
74674;SDS011;63200;48.810;12.352;2022-12-07T06:26:40;18.33;;;10.10;;
74674;SDS011;63200;48.810;12.352;2022-12-07T06:29:06;19.52;;;10.38;;
74674;SDS011;63200;48.810;12.352;2022-12-07T06:31:34;16.90;;;9.80;;
74674;SDS011;63200;48.810;12.352;2022-12-07T06:34:00;22.57;;;10.70;;
74674;SDS011;63200;48.810;12.352;2022-12-07T06:36:27;16.93;;;9.93;;
74674;SDS011;63200;48.810;12.352;2022-12-07T06:38:53;19.33;;;9.77;;
74674;SDS011;63200;48.810;12.352;2022-12-07T06:41:18;17.30;;;9.75;;
74674;SDS011;63200;48.810;12.352;2022-12-07T06:43:44;19.65;;;9.73;;
74674;SDS011;63200;48.810;12.352;2022-12-07T06:46:09;16.10;;;9.90;;
74674;SDS011;63200;48.810;12.352;2022-12-07T06:48:34;15.90;;;8.82;;
74674;SDS011;63200;48.810;12.352;2022-12-07T06:51:00;15.32;;;9.68;;
74674;SDS011;63200;48.810;12.352;2022-12-07T06:53:25;16.90;;;9.93;;
74674;SDS011;63200;48.810;12.352;2022-12-07T06:55:50;16.07;;;9.23;;
74674;SDS011;63200;48.810;12.352;2022-12-07T06:58:16;19.23;;;9.93;;
74674;SDS011;63200;48.810;12.352;2022-12-07T07:00:42;16.70;;;9.85;;
74674;SDS011;63200;48.810;12.352;2022-12-07T07:03:08;16.58;;;9.50;;
74674;SDS011;63200;48.810;12.352;2022-12-07T07:05:33;14.87;;;8.80;;
74674;SDS011;63200;48.810;12.352;2022-12-07T07:07:58;17.33;;;9.70;;
74674;SDS011;63200;48.810;12.352;2022-12-07T07:10:24;15.35;;;8.98;;
74674;SDS011;63200;48.810;12.352;2022-12-07T07:12:49;15.98;;;9.35;;
74674;SDS011;63200;48.810;12.352;2022-12-07T07:15:14;15.10;;;9.40;;
74674;SDS011;63200;48.810;12.352;2022-12-07T07:17:40;16.70;;;9.75;;
74674;SDS011;63200;48.810;12.352;2022-12-07T07:20:05;17.63;;;9.55;;
74674;SDS011;63200;48.810;12.352;2022-12-07T07:22:31;17.58;;;9.20;;
74674;SDS011;63200;48.810;12.352;2022-12-07T07:24:56;16.77;;;9.35;;
74674;SDS011;63200;48.810;12.352;2022-12-07T07:27:22;20.65;;;10.60;;
74674;SDS011;63200;48.810;12.352;2022-12-07T07:29:47;19.77;;;10.52;;
74674;SDS011;63200;48.810;12.352;2022-12-07T07:32:12;17.00;;;9.95;;
74674;SDS011;63200;48.810;12.352;2022-12-07T07:34:38;17.05;;;9.77;;
74674;SDS011;63200;48.810;12.352;2022-12-07T07:37:04;16.35;;;10.13;;
74674;SDS011;63200;48.810;12.352;2022-12-07T07:39:29;15.85;;;9.55;;
74674;SDS011;63200;48.810;12.352;2022-12-07T07:41:55;19.48;;;10.13;;
74674;SDS011;63200;48.810;12.352;2022-12-07T07:44:20;22.63;;;10.53;;
74674;SDS011;63200;48.810;12.352;2022-12-07T07:46:45;18.97;;;10.87;;
74674;SDS011;63200;48.810;12.352;2022-12-07T07:49:11;22.63;;;11.70;;
74674;SDS011;63200;48.810;12.352;2022-12-07T07:51:36;22.27;;;11.95;;
74674;SDS011;63200;48.810;12.352;2022-12-07T07:54:02;19.17;;;11.13;;
74674;SDS011;63200;48.810;12.352;2022-12-07T07:56:28;18.98;;;11.15;;
74674;SDS011;63200;48.810;12.352;2022-12-07T07:58:53;17.70;;;10.13;;
74674;SDS011;63200;48.810;12.352;2022-12-07T08:01:18;18.25;;;9.27;;
74674;SDS011;63200;48.810;12.352;2022-12-07T08:03:44;17.67;;;10.02;;
74674;SDS011;63200;48.810;12.352;2022-12-07T08:06:11;22.67;;;11.30;;
74674;SDS011;63200;48.810;12.352;2022-12-07T08:08:37;21.75;;;11.30;;
74674;SDS011;63200;48.810;12.352;2022-12-07T08:11:05;24.55;;;11.88;;
74674;SDS011;63200;48.810;12.352;2022-12-07T08:13:32;22.13;;;11.00;;
74674;SDS011;63200;48.810;12.352;2022-12-07T08:15:57;24.48;;;12.13;;
74674;SDS011;63200;48.810;12.352;2022-12-07T08:18:23;24.05;;;11.88;;
74674;SDS011;63200;48.810;12.352;2022-12-07T08:20:48;25.13;;;12.50;;
74674;SDS011;63200;48.810;12.352;2022-12-07T08:23:14;23.02;;;12.02;;
74674;SDS011;63200;48.810;12.352;2022-12-07T08:25:39;23.63;;;11.75;;
74674;SDS011;63200;48.810;12.352;2022-12-07T08:28:05;21.67;;;11.50;;
74674;SDS011;63200;48.810;12.352;2022-12-07T08:30:31;19.65;;;11.73;;
74674;SDS011;63200;48.810;12.352;2022-12-07T08:32:56;21.00;;;11.40;;
74674;SDS011;63200;48.810;12.352;2022-12-07T08:35:22;22.25;;;12.32;;
74674;SDS011;63200;48.810;12.352;2022-12-07T08:37:48;24.40;;;12.52;;
74674;SDS011;63200;48.810;12.352;2022-12-07T08:40:13;21.88;;;11.70;;
74674;SDS011;63200;48.810;12.352;2022-12-07T08:42:43;22.50;;;12.00;;
74674;SDS011;63200;48.810;12.352;2022-12-07T08:45:10;22.23;;;11.63;;
74674;SDS011;63200;48.810;12.352;2022-12-07T08:47:37;20.20;;;11.45;;
74674;SDS011;63200;48.810;12.352;2022-12-07T08:50:06;20.95;;;11.90;;
74674;SDS011;63200;48.810;12.352;2022-12-07T08:52:34;16.33;;;11.07;;
74674;SDS011;63200;48.810;12.352;2022-12-07T08:55:01;16.25;;;10.77;;
74674;SDS011;63200;48.810;12.352;2022-12-07T08:57:28;17.50;;;10.35;;
74674;SDS011;63200;48.810;12.352;2022-12-07T08:59:55;17.02;;;9.80;;
74674;SDS011;63200;48.810;12.352;2022-12-07T09:02:20;19.02;;;10.18;;
74674;SDS011;63200;48.810;12.352;2022-12-07T09:04:46;19.10;;;10.00;;
74674;SDS011;63200;48.810;12.352;2022-12-07T09:07:11;14.82;;;9.20;;
74674;SDS011;63200;48.810;12.352;2022-12-07T09:09:36;17.88;;;10.48;;
74674;SDS011;63200;48.810;12.352;2022-12-07T09:12:02;17.77;;;10.13;;
74674;SDS011;63200;48.810;12.352;2022-12-07T09:14:27;15.10;;;8.95;;
74674;SDS011;63200;48.810;12.352;2022-12-07T09:16:53;18.48;;;10.57;;
74674;SDS011;63200;48.810;12.352;2022-12-07T09:19:18;21.55;;;8.57;;
74674;SDS011;63200;48.810;12.352;2022-12-07T09:21:43;20.48;;;11.63;;
74674;SDS011;63200;48.810;12.352;2022-12-07T09:24:09;22.65;;;10.45;;
74674;SDS011;63200;48.810;12.352;2022-12-07T09:26:34;17.30;;;10.13;;
74674;SDS011;63200;48.810;12.352;2022-12-07T09:29:00;21.05;;;10.75;;
74674;SDS011;63200;48.810;12.352;2022-12-07T09:31:27;18.92;;;10.55;;
74674;SDS011;63200;48.810;12.352;2022-12-07T09:33:56;17.42;;;10.50;;
74674;SDS011;63200;48.810;12.352;2022-12-07T09:36:23;18.95;;;11.00;;
74674;SDS011;63200;48.810;12.352;2022-12-07T09:38:48;16.55;;;10.30;;
74674;SDS011;63200;48.810;12.352;2022-12-07T09:41:14;14.68;;;8.48;;
74674;SDS011;63200;48.810;12.352;2022-12-07T09:43:40;16.33;;;8.43;;
74674;SDS011;63200;48.810;12.352;2022-12-07T09:46:08;14.82;;;8.32;;
74674;SDS011;63200;48.810;12.352;2022-12-07T09:48:36;13.13;;;7.25;;
74674;SDS011;63200;48.810;12.352;2022-12-07T09:51:12;12.75;;;7.95;;
74674;SDS011;63200;48.810;12.352;2022-12-07T09:53:38;12.52;;;7.45;;
74674;SDS011;63200;48.810;12.352;2022-12-07T09:56:04;14.10;;;7.10;;
74674;SDS011;63200;48.810;12.352;2022-12-07T09:58:30;13.02;;;7.80;;
74674;SDS011;63200;48.810;12.352;2022-12-07T10:01:20;12.02;;;7.82;;
74674;SDS011;63200;48.810;12.352;2022-12-07T10:03:52;13.45;;;7.93;;
74674;SDS011;63200;48.810;12.352;2022-12-07T10:06:20;7.20;;;4.47;;
74674;SDS011;63200;48.810;12.352;2022-12-07T10:08:46;14.35;;;7.95;;
74674;SDS011;63200;48.810;12.352;2022-12-07T10:11:11;12.35;;;7.82;;
74674;SDS011;63200;48.810;12.352;2022-12-07T10:14:10;16.30;;;8.18;;
74674;SDS011;63200;48.810;12.352;2022-12-07T10:19:19;11.85;;;7.93;;
74674;SDS011;63200;48.810;12.352;2022-12-07T10:24:27;15.13;;;8.07;;
74674;SDS011;63200;48.810;12.352;2022-12-07T10:26:53;10.32;;;7.10;;
74674;SDS011;63200;48.810;12.352;2022-12-07T10:31:49;10.20;;;7.43;;
74674;SDS011;63200;48.810;12.352;2022-12-07T10:34:23;10.40;;;7.63;;
74674;SDS011;63200;48.810;12.352;2022-12-07T10:36:51;9.48;;;6.72;;
74674;SDS011;63200;48.810;12.352;2022-12-07T10:39:18;12.40;;;8.13;;
74674;SDS011;63200;48.810;12.352;2022-12-07T10:42:45;5.85;;;5.07;;
74674;SDS011;63200;48.810;12.352;2022-12-07T10:44:44;9.70;;;6.18;;
74674;SDS011;63200;48.810;12.352;2022-12-07T11:00:37;11.48;;;5.75;;
74674;SDS011;63200;48.810;12.352;2022-12-07T11:17:08;9.15;;;5.07;;
74674;SDS011;63200;48.810;12.352;2022-12-07T11:30:34;16.42;;;7.80;;
74674;SDS011;63200;48.810;12.352;2022-12-07T11:38:57;11.93;;;6.75;;
74674;SDS011;63200;48.810;12.352;2022-12-07T11:41:28;10.80;;;6.30;;
74674;SDS011;63200;48.810;12.352;2022-12-07T11:44:16;13.18;;;6.90;;
74674;SDS011;63200;48.810;12.352;2022-12-07T11:50:56;10.98;;;5.93;;
74674;SDS011;63200;48.810;12.352;2022-12-07T11:58:04;10.43;;;6.03;;
74674;SDS011;63200;48.810;12.352;2022-12-07T12:00:42;9.93;;;6.20;;
74674;SDS011;63200;48.810;12.352;2022-12-07T12:03:09;10.57;;;6.35;;
74674;SDS011;63200;48.810;12.352;2022-12-07T12:05:41;10.40;;;6.65;;
74674;SDS011;63200;48.810;12.352;2022-12-07T12:08:23;12.77;;;6.32;;
74674;SDS011;63200;48.810;12.352;2022-12-07T12:13:57;10.23;;;5.90;;
74674;SDS011;63200;48.810;12.352;2022-12-07T12:22:54;13.02;;;7.05;;
74674;SDS011;63200;48.810;12.352;2022-12-07T12:25:42;12.93;;;6.68;;
74674;SDS011;63200;48.810;12.352;2022-12-07T12:31:03;19.08;;;9.00;;
74674;SDS011;63200;48.810;12.352;2022-12-07T12:33:30;17.05;;;8.73;;
74674;SDS011;63200;48.810;12.352;2022-12-07T12:47:02;18.15;;;8.10;;
74674;SDS011;63200;48.810;12.352;2022-12-07T12:57:35;12.25;;;5.85;;
74674;SDS011;63200;48.810;12.352;2022-12-07T13:00:18;11.60;;;6.18;;
74674;SDS011;63200;48.810;12.352;2022-12-07T13:02:47;10.75;;;6.65;;
74674;SDS011;63200;48.810;12.352;2022-12-07T13:05:27;8.85;;;5.72;;
74674;SDS011;63200;48.810;12.352;2022-12-07T13:08:02;10.00;;;4.43;;
74674;SDS011;63200;48.810;12.352;2022-12-07T13:10:43;10.48;;;5.75;;
74674;SDS011;63200;48.810;12.352;2022-12-07T13:15:39;8.07;;;5.13;;
74674;SDS011;63200;48.810;12.352;2022-12-07T13:20:58;13.43;;;6.30;;
74674;SDS011;63200;48.810;12.352;2022-12-07T13:28:42;13.55;;;7.13;;
74674;SDS011;63200;48.810;12.352;2022-12-07T13:33:55;14.73;;;6.22;;
74674;SDS011;63200;48.810;12.352;2022-12-07T13:36:25;9.55;;;5.88;;
74674;SDS011;63200;48.810;12.352;2022-12-07T13:41:23;9.10;;;4.57;;
74674;SDS011;63200;48.810;12.352;2022-12-07T13:46:17;10.52;;;6.22;;
74674;SDS011;63200;48.810;12.352;2022-12-07T13:48:49;9.35;;;5.78;;
74674;SDS011;63200;48.810;12.352;2022-12-07T13:51:19;10.88;;;5.97;;
74674;SDS011;63200;48.810;12.352;2022-12-07T13:53:53;14.00;;;6.93;;
74674;SDS011;63200;48.810;12.352;2022-12-07T13:56:34;14.15;;;9.93;;
74674;SDS011;63200;48.810;12.352;2022-12-07T13:59:00;12.85;;;6.88;;
74674;SDS011;63200;48.810;12.352;2022-12-07T14:01:26;16.00;;;7.97;;
74674;SDS011;63200;48.810;12.352;2022-12-07T14:03:55;15.90;;;8.00;;
74674;SDS011;63200;48.810;12.352;2022-12-07T14:06:22;16.15;;;7.90;;
74674;SDS011;63200;48.810;12.352;2022-12-07T14:09:06;12.18;;;7.25;;
74674;SDS011;63200;48.810;12.352;2022-12-07T14:11:33;11.82;;;7.03;;
74674;SDS011;63200;48.810;12.352;2022-12-07T14:13:59;13.25;;;6.78;;
74674;SDS011;63200;48.810;12.352;2022-12-07T14:16:28;15.27;;;6.43;;
74674;SDS011;63200;48.810;12.352;2022-12-07T14:18:59;18.13;;;8.10;;
74674;SDS011;63200;48.810;12.352;2022-12-07T14:21:26;13.07;;;6.93;;
74674;SDS011;63200;48.810;12.352;2022-12-07T14:24:10;12.98;;;6.82;;
74674;SDS011;63200;48.810;12.352;2022-12-07T14:26:41;12.68;;;7.00;;
74674;SDS011;63200;48.810;12.352;2022-12-07T14:31:59;12.15;;;6.72;;
74674;SDS011;63200;48.810;12.352;2022-12-07T14:34:52;13.40;;;7.55;;
74674;SDS011;63200;48.810;12.352;2022-12-07T14:37:18;13.10;;;6.15;;
74674;SDS011;63200;48.810;12.352;2022-12-07T14:39:43;15.57;;;7.53;;
74674;SDS011;63200;48.810;12.352;2022-12-07T14:42:09;14.88;;;7.60;;
74674;SDS011;63200;48.810;12.352;2022-12-07T14:44:34;11.73;;;7.13;;
74674;SDS011;63200;48.810;12.352;2022-12-07T14:47:00;13.52;;;6.85;;
74674;SDS011;63200;48.810;12.352;2022-12-07T14:49:25;16.65;;;6.97;;
74674;SDS011;63200;48.810;12.352;2022-12-07T14:51:50;15.88;;;7.05;;
74674;SDS011;63200;48.810;12.352;2022-12-07T14:54:19;14.70;;;7.53;;
74674;SDS011;63200;48.810;12.352;2022-12-07T14:56:45;14.50;;;7.38;;
74674;SDS011;63200;48.810;12.352;2022-12-07T14:59:15;13.05;;;6.60;;
74674;SDS011;63200;48.810;12.352;2022-12-07T15:01:41;12.55;;;7.80;;
74674;SDS011;63200;48.810;12.352;2022-12-07T15:04:06;14.10;;;7.63;;
74674;SDS011;63200;48.810;12.352;2022-12-07T15:06:31;12.63;;;7.30;;
74674;SDS011;63200;48.810;12.352;2022-12-07T15:08:57;15.10;;;7.32;;
74674;SDS011;63200;48.810;12.352;2022-12-07T15:11:22;12.75;;;6.90;;
74674;SDS011;63200;48.810;12.352;2022-12-07T15:13:47;14.60;;;7.78;;
74674;SDS011;63200;48.810;12.352;2022-12-07T15:16:31;13.15;;;7.22;;
74674;SDS011;63200;48.810;12.352;2022-12-07T15:18:56;19.73;;;7.70;;
74674;SDS011;63200;48.810;12.352;2022-12-07T15:21:22;15.02;;;8.13;;
74674;SDS011;63200;48.810;12.352;2022-12-07T15:23:47;15.73;;;7.57;;
74674;SDS011;63200;48.810;12.352;2022-12-07T15:26:13;13.02;;;7.47;;
74674;SDS011;63200;48.810;12.352;2022-12-07T15:28:39;15.73;;;8.02;;
74674;SDS011;63200;48.810;12.352;2022-12-07T15:31:12;18.23;;;8.48;;
74674;SDS011;63200;48.810;12.352;2022-12-07T15:33:38;18.55;;;8.05;;
74674;SDS011;63200;48.810;12.352;2022-12-07T15:36:03;16.20;;;7.78;;
74674;SDS011;63200;48.810;12.352;2022-12-07T15:38:29;14.82;;;8.30;;
74674;SDS011;63200;48.810;12.352;2022-12-07T15:40:55;16.05;;;8.32;;
74674;SDS011;63200;48.810;12.352;2022-12-07T15:43:20;12.40;;;7.50;;
74674;SDS011;63200;48.810;12.352;2022-12-07T15:46:04;15.48;;;8.55;;
74674;SDS011;63200;48.810;12.352;2022-12-07T15:48:30;18.35;;;9.48;;
74674;SDS011;63200;48.810;12.352;2022-12-07T15:51:04;18.90;;;10.02;;
74674;SDS011;63200;48.810;12.352;2022-12-07T15:53:31;21.58;;;9.70;;
74674;SDS011;63200;48.810;12.352;2022-12-07T15:55:57;16.63;;;8.57;;
74674;SDS011;63200;48.810;12.352;2022-12-07T15:58:22;16.60;;;8.55;;
74674;SDS011;63200;48.810;12.352;2022-12-07T16:00:48;20.17;;;9.35;;
74674;SDS011;63200;48.810;12.352;2022-12-07T16:03:13;21.60;;;10.40;;
74674;SDS011;63200;48.810;12.352;2022-12-07T16:05:39;23.60;;;10.63;;
74674;SDS011;63200;48.810;12.352;2022-12-07T16:08:04;27.63;;;12.20;;
74674;SDS011;63200;48.810;12.352;2022-12-07T16:10:30;41.40;;;18.58;;
74674;SDS011;63200;48.810;12.352;2022-12-07T16:12:55;20.98;;;9.80;;
74674;SDS011;63200;48.810;12.352;2022-12-07T16:15:21;31.17;;;14.07;;
74674;SDS011;63200;48.810;12.352;2022-12-07T16:17:46;52.03;;;21.02;;
74674;SDS011;63200;48.810;12.352;2022-12-07T16:20:11;88.35;;;30.63;;
74674;SDS011;63200;48.810;12.352;2022-12-07T16:22:37;62.85;;;24.95;;
74674;SDS011;63200;48.810;12.352;2022-12-07T16:25:02;69.15;;;27.45;;
74674;SDS011;63200;48.810;12.352;2022-12-07T16:27:28;85.60;;;31.90;;
74674;SDS011;63200;48.810;12.352;2022-12-07T16:29:53;57.55;;;23.88;;
74674;SDS011;63200;48.810;12.352;2022-12-07T16:32:19;30.40;;;12.45;;
74674;SDS011;63200;48.810;12.352;2022-12-07T16:34:44;27.70;;;12.25;;
74674;SDS011;63200;48.810;12.352;2022-12-07T16:37:09;27.58;;;10.98;;
74674;SDS011;63200;48.810;12.352;2022-12-07T16:39:35;23.00;;;11.20;;
74674;SDS011;63200;48.810;12.352;2022-12-07T16:42:00;24.70;;;10.65;;
74674;SDS011;63200;48.810;12.352;2022-12-07T16:44:26;22.58;;;10.45;;
74674;SDS011;63200;48.810;12.352;2022-12-07T16:46:51;23.13;;;11.07;;
74674;SDS011;63200;48.810;12.352;2022-12-07T16:49:16;22.83;;;10.93;;
74674;SDS011;63200;48.810;12.352;2022-12-07T16:51:43;23.13;;;10.85;;
74674;SDS011;63200;48.810;12.352;2022-12-07T16:54:11;22.30;;;12.18;;
74674;SDS011;63200;48.810;12.352;2022-12-07T16:56:37;21.13;;;11.40;;
74674;SDS011;63200;48.810;12.352;2022-12-07T16:59:02;23.30;;;10.48;;